SIN weather

Singapore Changi Airport
Singapore, South East, Singapore

Public forecast

Using degrees Celsius for public forecast. Weather courtesy of forecast.io.

METAR (pilot weather report)

Retrieved 2018/10/19 08:30 UTC (18 minutes ago):

WSSS 190830Z VRB06KT 9999 FEW018 FEW020TCU BKN300 32/22 Q1009 NOSIG

TAF (pilot weather forecast)

Forecast is more than 12 hours old.

Retrieved 2018/10/18 12:12 UTC (21 hours ago):

TAF WSSS 181100Z 1812/1918 27007KT 9999 FEW018CB SCT020 TEMPO 1822/1902 27015G25KT 3000 TSRA FEW012CB BKN015